sensor_id;sensor_type;location;lat;lon;timestamp;pressure;altitude;pressure_sealevel;temperature
39959;BMP280;25639;53.634;9.880;2023-04-06T00:00:58;148770.31;;;-14.67
39959;BMP280;25639;53.634;9.880;2023-04-06T00:03:23;148761.56;;;-14.70
39959;BMP280;25639;53.634;9.880;2023-04-06T00:05:49;148749.06;;;-14.75
39959;BMP280;25639;53.634;9.880;2023-04-06T00:08:14;148722.81;;;-14.86
39959;BMP280;25639;53.634;9.880;2023-04-06T00:10:40;148696.53;;;-14.97
39959;BMP280;25639;53.634;9.880;2023-04-06T00:13:06;148670.28;;;-15.08
39959;BMP280;25639;53.634;9.880;2023-04-06T00:15:31;148632.81;;;-15.23
39959;BMP280;25639;53.634;9.880;2023-04-06T00:17:57;148604.06;;;-15.35
39959;BMP280;25639;53.634;9.880;2023-04-06T00:20:22;148602.81;;;-15.36
39959;BMP280;25639;53.634;9.880;2023-04-06T00:22:48;148601.53;;;-15.36
39959;BMP280;25639;53.634;9.880;2023-04-06T00:25:13;148612.81;;;-15.31
39959;BMP280;25639;53.634;9.880;2023-04-06T00:27:40;148617.81;;;-15.29
39959;BMP280;25639;53.634;9.880;2023-04-06T00:30:07;148629.06;;;-15.25
39959;BMP280;25639;53.634;9.880;2023-04-06T00:32:32;148634.06;;;-15.23
39959;BMP280;25639;53.634;9.880;2023-04-06T00:34:58;148620.31;;;-15.28
39959;BMP280;25639;53.634;9.880;2023-04-06T00:37:23;148616.56;;;-15.30
39959;BMP280;25639;53.634;9.880;2023-04-06T00:39:49;148604.06;;;-15.35
39959;BMP280;25639;53.634;9.880;2023-04-06T00:42:17;148585.34;;;-15.43
39959;BMP280;25639;53.634;9.880;2023-04-06T00:44:50;148579.06;;;-15.45
39959;BMP280;25639;53.634;9.880;2023-04-06T00:47:15;148577.81;;;-15.46
39959;BMP280;25639;53.634;9.880;2023-04-06T00:49:40;148572.81;;;-15.48
39959;BMP280;25639;53.634;9.880;2023-04-06T00:52:06;148571.59;;;-15.48
39959;BMP280;25639;53.634;9.880;2023-04-06T00:54:31;148571.59;;;-15.48
39959;BMP280;25639;53.634;9.880;2023-04-06T00:56:56;148565.31;;;-15.51
39959;BMP280;25639;53.634;9.880;2023-04-06T00:59:22;148570.31;;;-15.49
39959;BMP280;25639;53.634;9.880;2023-04-06T01:01:48;148561.56;;;-15.52
39959;BMP280;25639;53.634;9.880;2023-04-06T01:04:13;148552.81;;;-15.56
39959;BMP280;25639;53.634;9.880;2023-04-06T01:06:38;148555.34;;;-15.55
39959;BMP280;25639;53.634;9.880;2023-04-06T01:09:04;148555.34;;;-15.55
39959;BMP280;25639;53.634;9.880;2023-04-06T01:11:29;148554.09;;;-15.56
39959;BMP280;25639;53.634;9.880;2023-04-06T01:13:55;148547.81;;;-15.58
39959;BMP280;25639;53.634;9.880;2023-04-06T01:16:20;148529.09;;;-15.66
39959;BMP280;25639;53.634;9.880;2023-04-06T01:18:46;148495.41;;;-15.80
39959;BMP280;25639;53.634;9.880;2023-04-06T01:21:11;148474.16;;;-15.88
39959;BMP280;25639;53.634;9.880;2023-04-06T01:23:43;148479.16;;;-15.86
39959;BMP280;25639;53.634;9.880;2023-04-06T01:26:09;148476.66;;;-15.87
39959;BMP280;25639;53.634;9.880;2023-04-06T01:28:35;148464.19;;;-15.93
39959;BMP280;25639;53.634;9.880;2023-04-06T01:31:02;148445.44;;;-16.00
39959;BMP280;25639;53.634;9.880;2023-04-06T01:33:27;148445.44;;;-16.00
39959;BMP280;25639;53.634;9.880;2023-04-06T01:35:53;148449.16;;;-15.99
39959;BMP280;25639;53.634;9.880;2023-04-06T01:38:18;148450.44;;;-15.98
39959;BMP280;25639;53.634;9.880;2023-04-06T01:40:43;148437.94;;;-16.03
39959;BMP280;25639;53.634;9.880;2023-04-06T01:43:09;148444.16;;;-16.01
39959;BMP280;25639;53.634;9.880;2023-04-06T01:45:34;148429.19;;;-16.07
39959;BMP280;25639;53.634;9.880;2023-04-06T01:48:00;148416.72;;;-16.12
39959;BMP280;25639;53.634;9.880;2023-04-06T01:50:25;148409.19;;;-16.15
39959;BMP280;25639;53.634;9.880;2023-04-06T01:52:50;148415.47;;;-16.13
39959;BMP280;25639;53.634;9.880;2023-04-06T01:55:16;148416.72;;;-16.12
39959;BMP280;25639;53.634;9.880;2023-04-06T01:57:41;148405.44;;;-16.17
39959;BMP280;25639;53.634;9.880;2023-04-06T02:00:07;148414.19;;;-16.13
39959;BMP280;25639;53.634;9.880;2023-04-06T02:02:32;148401.75;;;-16.18
39959;BMP280;25639;53.634;9.880;2023-04-06T02:04:57;148395.47;;;-16.21
39959;BMP280;25639;53.634;9.880;2023-04-06T02:07:23;148379.22;;;-16.27
39959;BMP280;25639;53.634;9.880;2023-04-06T02:09:48;148374.25;;;-16.29
39959;BMP280;25639;53.634;9.880;2023-04-06T02:12:13;148379.22;;;-16.27
39959;BMP280;25639;53.634;9.880;2023-04-06T02:14:39;148371.75;;;-16.30
39959;BMP280;25639;53.634;9.880;2023-04-06T02:17:04;148380.50;;;-16.27
39959;BMP280;25639;53.634;9.880;2023-04-06T02:19:29;148374.25;;;-16.29
39959;BMP280;25639;53.634;9.880;2023-04-06T02:21:55;148371.75;;;-16.30
39959;BMP280;25639;53.634;9.880;2023-04-06T02:24:22;148379.22;;;-16.27
39959;BMP280;25639;53.634;9.880;2023-04-06T02:26:48;148374.25;;;-16.29
39959;BMP280;25639;53.634;9.880;2023-04-06T02:29:13;148375.53;;;-16.29
39959;BMP280;25639;53.634;9.880;2023-04-06T02:31:38;148361.75;;;-16.35
39959;BMP280;25639;53.634;9.880;2023-04-06T02:34:03;148370.47;;;-16.31
39959;BMP280;25639;53.634;9.880;2023-04-06T02:36:29;148368.00;;;-16.32
39959;BMP280;25639;53.634;9.880;2023-04-06T02:38:55;148361.75;;;-16.35
39959;BMP280;25639;53.634;9.880;2023-04-06T02:41:20;148369.25;;;-16.32
39959;BMP280;25639;53.634;9.880;2023-04-06T02:43:45;148368.00;;;-16.32
39959;BMP280;25639;53.634;9.880;2023-04-06T02:46:10;148339.28;;;-16.44
39959;BMP280;25639;53.634;9.880;2023-04-06T02:48:36;148323.03;;;-16.51
39959;BMP280;25639;53.634;9.880;2023-04-06T02:51:02;148339.28;;;-16.44
39959;BMP280;25639;53.634;9.880;2023-04-06T02:53:27;148363.03;;;-16.34
39959;BMP280;25639;53.634;9.880;2023-04-06T02:55:53;148349.25;;;-16.40
39959;BMP280;25639;53.634;9.880;2023-04-06T02:58:18;148354.28;;;-16.38
39959;BMP280;25639;53.634;9.880;2023-04-06T03:00:43;148358.00;;;-16.36
39959;BMP280;25639;53.634;9.880;2023-04-06T03:03:08;148359.28;;;-16.36
39959;BMP280;25639;53.634;9.880;2023-04-06T03:05:34;148365.50;;;-16.33
39959;BMP280;25639;53.634;9.880;2023-04-06T03:07:59;148364.25;;;-16.34
39959;BMP280;25639;53.634;9.880;2023-04-06T03:10:25;148350.53;;;-16.39
39959;BMP280;25639;53.634;9.880;2023-04-06T03:12:50;148373.00;;;-16.30
39959;BMP280;25639;53.634;9.880;2023-04-06T03:15:15;148364.25;;;-16.34
39959;BMP280;25639;53.634;9.880;2023-04-06T03:17:41;148376.75;;;-16.28
39959;BMP280;25639;53.634;9.880;2023-04-06T03:20:06;148376.75;;;-16.28
39959;BMP280;25639;53.634;9.880;2023-04-06T03:22:32;148358.00;;;-16.36
39959;BMP280;25639;53.634;9.880;2023-04-06T03:24:57;148344.25;;;-16.42
39959;BMP280;25639;53.634;9.880;2023-04-06T03:27:22;148326.78;;;-16.49
39959;BMP280;25639;53.634;9.880;2023-04-06T03:29:48;148311.81;;;-16.55
39959;BMP280;25639;53.634;9.880;2023-04-06T03:32:13;148310.59;;;-16.56
39959;BMP280;25639;53.634;9.880;2023-04-06T03:34:38;148314.28;;;-16.54
39959;BMP280;25639;53.634;9.880;2023-04-06T03:37:04;148303.09;;;-16.59
39959;BMP280;25639;53.634;9.880;2023-04-06T03:39:30;148335.53;;;-16.45
39959;BMP280;25639;53.634;9.880;2023-04-06T03:41:55;148349.25;;;-16.40
39959;BMP280;25639;53.634;9.880;2023-04-06T03:44:21;148308.06;;;-16.57
39959;BMP280;25639;53.634;9.880;2023-04-06T03:46:46;148294.34;;;-16.62
39959;BMP280;25639;53.634;9.880;2023-04-06T03:49:11;148278.09;;;-16.69
39959;BMP280;25639;53.634;9.880;2023-04-06T03:51:36;148251.91;;;-16.80
39959;BMP280;25639;53.634;9.880;2023-04-06T03:54:02;148244.44;;;-16.83
39959;BMP280;25639;53.634;9.880;2023-04-06T03:56:27;148244.44;;;-16.83
39959;BMP280;25639;53.634;9.880;2023-04-06T03:58:52;148235.72;;;-16.86
39959;BMP280;25639;53.634;9.880;2023-04-06T04:01:18;148224.50;;;-16.91
39959;BMP280;25639;53.634;9.880;2023-04-06T04:03:44;148218.22;;;-16.94
39959;BMP280;25639;53.634;9.880;2023-04-06T04:06:09;148225.72;;;-16.91
39959;BMP280;25639;53.634;9.880;2023-04-06T04:08:37;148249.44;;;-16.81
39959;BMP280;25639;53.634;9.880;2023-04-06T04:11:03;148264.38;;;-16.75
39959;BMP280;25639;53.634;9.880;2023-04-06T04:13:28;148241.97;;;-16.84
39959;BMP280;25639;53.634;9.880;2023-04-06T04:15:53;148231.97;;;-16.88
39959;BMP280;25639;53.634;9.880;2023-04-06T04:18:19;148270.59;;;-16.72
39959;BMP280;25639;53.634;9.880;2023-04-06T04:20:45;148308.06;;;-16.57
39959;BMP280;25639;53.634;9.880;2023-04-06T04:23:11;148265.63;;;-16.74
39959;BMP280;25639;53.634;9.880;2023-04-06T04:25:36;148229.50;;;-16.89
39959;BMP280;25639;53.634;9.880;2023-04-06T04:28:02;148210.78;;;-16.97
39959;BMP280;25639;53.634;9.880;2023-04-06T04:30:27;148223.22;;;-16.92
39959;BMP280;25639;53.634;9.880;2023-04-06T04:32:53;148256.88;;;-16.78
39959;BMP280;25639;53.634;9.880;2023-04-06T04:35:18;148241.97;;;-16.84
39959;BMP280;25639;53.634;9.880;2023-04-06T04:37:43;148260.63;;;-16.76
39959;BMP280;25639;53.634;9.880;2023-04-06T04:40:09;148258.16;;;-16.77
39959;BMP280;25639;53.634;9.880;2023-04-06T04:42:35;148233.25;;;-16.87
39959;BMP280;25639;53.634;9.880;2023-04-06T04:45:01;148213.25;;;-16.96
39959;BMP280;25639;53.634;9.880;2023-04-06T04:47:26;148204.50;;;-16.99
39959;BMP280;25639;53.634;9.880;2023-04-06T04:49:51;148187.03;;;-17.06
39959;BMP280;25639;53.634;9.880;2023-04-06T04:52:17;148212.00;;;-16.96
39959;BMP280;25639;53.634;9.880;2023-04-06T04:54:42;148237.00;;;-16.86
39959;BMP280;25639;53.634;9.880;2023-04-06T04:57:07;148230.72;;;-16.88
39959;BMP280;25639;53.634;9.880;2023-04-06T04:59:34;148253.13;;;-16.79
39959;BMP280;25639;53.634;9.880;2023-04-06T05:02:00;148259.41;;;-16.77
39959;BMP280;25639;53.634;9.880;2023-04-06T05:04:25;148280.63;;;-16.68
39959;BMP280;25639;53.634;9.880;2023-04-06T05:07:04;148271.88;;;-16.72
39959;BMP280;25639;53.634;9.880;2023-04-06T05:09:30;148266.91;;;-16.74
39959;BMP280;25639;53.634;9.880;2023-04-06T05:11:56;148255.66;;;-16.78
39959;BMP280;25639;53.634;9.880;2023-04-06T05:14:22;148261.88;;;-16.76
39959;BMP280;25639;53.634;9.880;2023-04-06T05:16:47;148268.13;;;-16.73
39959;BMP280;25639;53.634;9.880;2023-04-06T05:19:13;148266.91;;;-16.74
39959;BMP280;25639;53.634;9.880;2023-04-06T05:21:38;148301.84;;;-16.59
39959;BMP280;25639;53.634;9.880;2023-04-06T05:24:03;148353.00;;;-16.38
39959;BMP280;25639;53.634;9.880;2023-04-06T05:26:29;148381.75;;;-16.26
39959;BMP280;25639;53.634;9.880;2023-04-06T05:28:54;148384.25;;;-16.25
39959;BMP280;25639;53.634;9.880;2023-04-06T05:31:20;148407.97;;;-16.16
39959;BMP280;25639;53.634;9.880;2023-04-06T05:33:45;148424.22;;;-16.09
39959;BMP280;25639;53.634;9.880;2023-04-06T05:36:11;148449.16;;;-15.99
39959;BMP280;25639;53.634;9.880;2023-04-06T05:38:37;148464.19;;;-15.93
39959;BMP280;25639;53.634;9.880;2023-04-06T05:41:02;148466.66;;;-15.91
39959;BMP280;25639;53.634;9.880;2023-04-06T05:43:27;148506.66;;;-15.75
39959;BMP280;25639;53.634;9.880;2023-04-06T05:45:53;148540.31;;;-15.61
39959;BMP280;25639;53.634;9.880;2023-04-06T05:48:18;148577.81;;;-15.46
39959;BMP280;25639;53.634;9.880;2023-04-06T05:50:48;148609.06;;;-15.33
39959;BMP280;25639;53.634;9.880;2023-04-06T05:53:14;148700.31;;;-14.95
39959;BMP280;25639;53.634;9.880;2023-04-06T05:55:40;148784.06;;;-14.61
39959;BMP280;25639;53.634;9.880;2023-04-06T05:58:05;148882.84;;;-14.21
39959;BMP280;25639;53.634;9.880;2023-04-06T06:00:30;149036.75;;;-13.57
39959;BMP280;25639;53.634;9.880;2023-04-06T06:02:56;149098.09;;;-13.32
39959;BMP280;25639;53.634;9.880;2023-04-06T06:05:21;149232.06;;;-12.77
39959;BMP280;25639;53.634;9.880;2023-04-06T06:07:46;149311.00;;;-12.45
39959;BMP280;25639;53.634;9.880;2023-04-06T06:10:12;149389.94;;;-12.13
39959;BMP280;25639;53.634;9.880;2023-04-06T06:12:37;149427.56;;;-11.97
39959;BMP280;25639;53.634;9.880;2023-04-06T06:15:03;149551.63;;;-11.46
39959;BMP280;25639;53.634;9.880;2023-04-06T06:17:28;149585.50;;;-11.33
39959;BMP280;25639;53.634;9.880;2023-04-06T06:19:53;149569.19;;;-11.39
39959;BMP280;25639;53.634;9.880;2023-04-06T06:22:19;149650.72;;;-11.06
39959;BMP280;25639;53.634;9.880;2023-04-06T06:24:44;149626.91;;;-11.16
39959;BMP280;25639;53.634;9.880;2023-04-06T06:27:10;149682.09;;;-10.93
39959;BMP280;25639;53.634;9.880;2023-04-06T06:29:35;149783.78;;;-10.51
39959;BMP280;25639;53.634;9.880;2023-04-06T06:32:00;149743.56;;;-10.68
39959;BMP280;25639;53.634;9.880;2023-04-06T06:34:26;149800.06;;;-10.45
39959;BMP280;25639;53.634;9.880;2023-04-06T06:36:51;149857.75;;;-10.21
39959;BMP280;25639;53.634;9.880;2023-04-06T06:39:16;149928.09;;;-9.92
39959;BMP280;25639;53.634;9.880;2023-04-06T06:41:42;149931.81;;;-9.91
39959;BMP280;25639;53.634;9.880;2023-04-06T06:44:07;149919.31;;;-9.96
39959;BMP280;25639;53.634;9.880;2023-04-06T06:46:32;149999.66;;;-9.63
39959;BMP280;25639;53.634;9.880;2023-04-06T06:48:58;150071.25;;;-9.34
39959;BMP280;25639;53.634;9.880;2023-04-06T06:51:24;150125.31;;;-9.12
39959;BMP280;25639;53.634;9.880;2023-04-06T06:53:49;150130.34;;;-9.10
39959;BMP280;25639;53.634;9.880;2023-04-06T06:56:14;150165.53;;;-8.95
39959;BMP280;25639;53.634;9.880;2023-04-06T06:58:40;150125.31;;;-9.12
39959;BMP280;25639;53.634;9.880;2023-04-06T07:01:05;150267.31;;;-8.54
39959;BMP280;25639;53.634;9.880;2023-04-06T07:03:31;150345.25;;;-8.22
39959;BMP280;25639;53.634;9.880;2023-04-06T07:05:56;150341.47;;;-8.24
39959;BMP280;25639;53.634;9.880;2023-04-06T07:08:23;150404.34;;;-7.98
39959;BMP280;25639;53.634;9.880;2023-04-06T07:10:50;150350.25;;;-8.20
39959;BMP280;25639;53.634;9.880;2023-04-06T07:13:17;150318.84;;;-8.33
39959;BMP280;25639;53.634;9.880;2023-04-06T07:15:47;150473.53;;;-7.70
39959;BMP280;25639;53.634;9.880;2023-04-06T07:18:12;150477.31;;;-7.68
39959;BMP280;25639;53.634;9.880;2023-04-06T07:20:37;150508.75;;;-7.55
39959;BMP280;25639;53.634;9.880;2023-04-06T07:23:03;150488.66;;;-7.63
39959;BMP280;25639;53.634;9.880;2023-04-06T07:25:29;150463.47;;;-7.74
39959;BMP280;25639;53.634;9.880;2023-04-06T07:27:54;150486.13;;;-7.64
39959;BMP280;25639;53.634;9.880;2023-04-06T07:30:20;150526.38;;;-7.48
39959;BMP280;25639;53.634;9.880;2023-04-06T07:32:47;150624.56;;;-7.08
39959;BMP280;25639;53.634;9.880;2023-04-06T07:35:12;150633.38;;;-7.04
39959;BMP280;25639;53.634;9.880;2023-04-06T07:37:37;150760.53;;;-6.53
39959;BMP280;25639;53.634;9.880;2023-04-06T07:40:03;150829.78;;;-6.24
39959;BMP280;25639;53.634;9.880;2023-04-06T07:42:28;150726.53;;;-6.66
39959;BMP280;25639;53.634;9.880;2023-04-06T07:44:53;150724.00;;;-6.67
39959;BMP280;25639;53.634;9.880;2023-04-06T07:47:19;150668.63;;;-6.90
39959;BMP280;25639;53.634;9.880;2023-04-06T07:49:44;150712.69;;;-6.72
39959;BMP280;25639;53.634;9.880;2023-04-06T07:52:10;150813.44;;;-6.31
39959;BMP280;25639;53.634;9.880;2023-04-06T07:54:35;150755.47;;;-6.55
39959;BMP280;25639;53.634;9.880;2023-04-06T07:57:01;150818.47;;;-6.29
39959;BMP280;25639;53.634;9.880;2023-04-06T07:59:26;150807.13;;;-6.34
39959;BMP280;25639;53.634;9.880;2023-04-06T08:01:51;150737.84;;;-6.62
39959;BMP280;25639;53.634;9.880;2023-04-06T08:04:16;150746.66;;;-6.58
39959;BMP280;25639;53.634;9.880;2023-04-06T08:06:42;150797.06;;;-6.38
39959;BMP280;25639;53.634;9.880;2023-04-06T08:09:07;150833.56;;;-6.23
39959;BMP280;25639;53.634;9.880;2023-04-06T08:11:32;150823.50;;;-6.27
39959;BMP280;25639;53.634;9.880;2023-04-06T08:13:58;150933.06;;;-5.82
39959;BMP280;25639;53.634;9.880;2023-04-06T08:16:24;150795.81;;;-6.38
39959;BMP280;25639;53.634;9.880;2023-04-06T08:18:49;150808.34;;;-6.33
39959;BMP280;25639;53.634;9.880;2023-04-06T08:21:15;150809.66;;;-6.33
39959;BMP280;25639;53.634;9.880;2023-04-06T08:23:40;150778.16;;;-6.45
39959;BMP280;25639;53.634;9.880;2023-04-06T08:26:05;150844.91;;;-6.18
39959;BMP280;25639;53.634;9.880;2023-04-06T08:28:31;150877.66;;;-6.05
39959;BMP280;25639;53.634;9.880;2023-04-06T08:30:57;150883.97;;;-6.02
39959;BMP280;25639;53.634;9.880;2023-04-06T08:33:22;150834.84;;;-6.22
39959;BMP280;25639;53.634;9.880;2023-04-06T08:35:48;150860.00;;;-6.12
39959;BMP280;25639;53.634;9.880;2023-04-06T08:38:13;150936.84;;;-5.81
39959;BMP280;25639;53.634;9.880;2023-04-06T08:40:39;150897.81;;;-5.97
39959;BMP280;25639;53.634;9.880;2023-04-06T08:43:10;150916.66;;;-5.89
39959;BMP280;25639;53.634;9.880;2023-04-06T08:45:38;150938.09;;;-5.80
39959;BMP280;25639;53.634;9.880;2023-04-06T08:48:04;150970.88;;;-5.67
39959;BMP280;25639;53.634;9.880;2023-04-06T08:50:32;150974.63;;;-5.65
39959;BMP280;25639;53.634;9.880;2023-04-06T08:52:59;151026.31;;;-5.44
39959;BMP280;25639;53.634;9.880;2023-04-06T08:55:24;151112.03;;;-5.09
39959;BMP280;25639;53.634;9.880;2023-04-06T08:57:50;151127.16;;;-5.03
39959;BMP280;25639;53.634;9.880;2023-04-06T09:00:18;151193.97;;;-4.76
39959;BMP280;25639;53.634;9.880;2023-04-06T09:02:45;151132.19;;;-5.01
39959;BMP280;25639;53.634;9.880;2023-04-06T09:05:11;151113.28;;;-5.09
39959;BMP280;25639;53.634;9.880;2023-04-06T09:07:37;151267.16;;;-4.46
39959;BMP280;25639;53.634;9.880;2023-04-06T09:10:06;151302.47;;;-4.32
39959;BMP280;25639;53.634;9.880;2023-04-06T09:12:32;151182.66;;;-4.81
39959;BMP280;25639;53.634;9.880;2023-04-06T09:14:59;151228.03;;;-4.62
39959;BMP280;25639;53.634;9.880;2023-04-06T09:17:26;151354.22;;;-4.11
39959;BMP280;25639;53.634;9.880;2023-04-06T09:19:52;151202.81;;;-4.72
39959;BMP280;25639;53.634;9.880;2023-04-06T09:22:18;151127.16;;;-5.03
39959;BMP280;25639;53.634;9.880;2023-04-06T09:24:49;151163.72;;;-4.88
39959;BMP280;25639;53.634;9.880;2023-04-06T09:27:15;151231.84;;;-4.61
39959;BMP280;25639;53.634;9.880;2023-04-06T09:29:42;151190.19;;;-4.78
39959;BMP280;25639;53.634;9.880;2023-04-06T09:32:10;151122.13;;;-5.05
39959;BMP280;25639;53.634;9.880;2023-04-06T09:34:38;151176.31;;;-4.83
39959;BMP280;25639;53.634;9.880;2023-04-06T09:37:18;151206.59;;;-4.71
39959;BMP280;25639;53.634;9.880;2023-04-06T09:39:44;151163.72;;;-4.88
39959;BMP280;25639;53.634;9.880;2023-04-06T09:42:22;151209.13;;;-4.70
39959;BMP280;25639;53.634;9.880;2023-04-06T09:44:48;151359.25;;;-4.09
39959;BMP280;25639;53.634;9.880;2023-04-06T09:47:13;151284.81;;;-4.39
39959;BMP280;25639;53.634;9.880;2023-04-06T09:49:40;151282.28;;;-4.40
39959;BMP280;25639;53.634;9.880;2023-04-06T09:52:06;151282.28;;;-4.40
39959;BMP280;25639;53.634;9.880;2023-04-06T09:54:34;151215.44;;;-4.67
39959;BMP280;25639;53.634;9.880;2023-04-06T09:57:26;151186.44;;;-4.79
39959;BMP280;25639;53.634;9.880;2023-04-06T10:00:03;151249.50;;;-4.53
39959;BMP280;25639;53.634;9.880;2023-04-06T10:07:46;151371.88;;;-4.04
39959;BMP280;25639;53.634;9.880;2023-04-06T10:10:14;151388.28;;;-3.97
39959;BMP280;25639;53.634;9.880;2023-04-06T10:12:40;151335.31;;;-4.18
39959;BMP280;25639;53.634;9.880;2023-04-06T10:15:07;151369.34;;;-4.05
39959;BMP280;25639;53.634;9.880;2023-04-06T10:17:33;151403.41;;;-3.91
39959;BMP280;25639;53.634;9.880;2023-04-06T10:22:59;151275.97;;;-4.43
39959;BMP280;25639;53.634;9.880;2023-04-06T10:25:31;151411.00;;;-3.88
39959;BMP280;25639;53.634;9.880;2023-04-06T10:28:08;151327.72;;;-4.22
39959;BMP280;25639;53.634;9.880;2023-04-06T10:30:35;151334.00;;;-4.19
39959;BMP280;25639;53.634;9.880;2023-04-06T10:33:20;151421.09;;;-3.84
39959;BMP280;25639;53.634;9.880;2023-04-06T10:35:45;151417.28;;;-3.85
39959;BMP280;25639;53.634;9.880;2023-04-06T10:38:11;151262.13;;;-4.48
39959;BMP280;25639;53.634;9.880;2023-04-06T10:40:40;151258.31;;;-4.50
39959;BMP280;25639;53.634;9.880;2023-04-06T10:43:13;151253.28;;;-4.52
39959;BMP280;25639;53.634;9.880;2023-04-06T10:45:40;151365.53;;;-4.06
39959;BMP280;25639;53.634;9.880;2023-04-06T10:48:13;151363.03;;;-4.07
39959;BMP280;25639;53.634;9.880;2023-04-06T10:50:39;151318.88;;;-4.25
39959;BMP280;25639;53.634;9.880;2023-04-06T10:53:05;151326.41;;;-4.22
39959;BMP280;25639;53.634;9.880;2023-04-06T10:55:31;151361.78;;;-4.08
39959;BMP280;25639;53.634;9.880;2023-04-06T10:57:57;151335.31;;;-4.18
39959;BMP280;25639;53.634;9.880;2023-04-06T11:00:22;151313.84;;;-4.27
39959;BMP280;25639;53.634;9.880;2023-04-06T11:02:48;151355.47;;;-4.10
39959;BMP280;25639;53.634;9.880;2023-04-06T11:05:14;151356.72;;;-4.10
39959;BMP280;25639;53.634;9.880;2023-04-06T11:07:40;151398.38;;;-3.93
39959;BMP280;25639;53.634;9.880;2023-04-06T11:10:07;151544.78;;;-3.33
39959;BMP280;25639;53.634;9.880;2023-04-06T11:12:33;151525.88;;;-3.41
39959;BMP280;25639;53.634;9.880;2023-04-06T11:15:00;151508.19;;;-3.48
39959;BMP280;25639;53.634;9.880;2023-04-06T11:17:36;151503.16;;;-3.50
39959;BMP280;25639;53.634;9.880;2023-04-06T11:20:03;151433.72;;;-3.78
39959;BMP280;25639;53.634;9.880;2023-04-06T11:22:31;151421.09;;;-3.84
39959;BMP280;25639;53.634;9.880;2023-04-06T11:25:06;151452.63;;;-3.71
39959;BMP280;25639;53.634;9.880;2023-04-06T11:27:33;151437.50;;;-3.77
39959;BMP280;25639;53.634;9.880;2023-04-06T11:30:00;151384.50;;;-3.98
39959;BMP280;25639;53.634;9.880;2023-04-06T11:32:25;151491.75;;;-3.55
39959;BMP280;25639;53.634;9.880;2023-04-06T11:34:51;151577.63;;;-3.20
39959;BMP280;25639;53.634;9.880;2023-04-06T11:37:16;151500.59;;;-3.51
39959;BMP280;25639;53.634;9.880;2023-04-06T11:39:49;151506.94;;;-3.49
39959;BMP280;25639;53.634;9.880;2023-04-06T11:42:28;151525.88;;;-3.41
39959;BMP280;25639;53.634;9.880;2023-04-06T11:44:58;151523.31;;;-3.42
39959;BMP280;25639;53.634;9.880;2023-04-06T11:47:32;151495.56;;;-3.53
39959;BMP280;25639;53.634;9.880;2023-04-06T11:50:08;151515.78;;;-3.45
39959;BMP280;25639;53.634;9.880;2023-04-06T11:52:34;151557.41;;;-3.28
39959;BMP280;25639;53.634;9.880;2023-04-06T11:55:10;151506.94;;;-3.49
39959;BMP280;25639;53.634;9.880;2023-04-06T11:57:36;151552.38;;;-3.30
39959;BMP280;25639;53.634;9.880;2023-04-06T12:00:02;151604.16;;;-3.09
39959;BMP280;25639;53.634;9.880;2023-04-06T12:02:28;151678.66;;;-2.79
39959;BMP280;25639;53.634;9.880;2023-04-06T12:04:53;151750.66;;;-2.50
39959;BMP280;25639;53.634;9.880;2023-04-06T12:07:18;151614.25;;;-3.05
39959;BMP280;25639;53.634;9.880;2023-04-06T12:09:44;151621.84;;;-3.02
39959;BMP280;25639;53.634;9.880;2023-04-06T12:12:09;151668.53;;;-2.83
39959;BMP280;25639;53.634;9.880;2023-04-06T12:14:35;151702.66;;;-2.69
39959;BMP280;25639;53.634;9.880;2023-04-06T12:17:00;151803.72;;;-2.28
39959;BMP280;25639;53.634;9.880;2023-04-06T12:19:25;151861.84;;;-2.04
39959;BMP280;25639;53.634;9.880;2023-04-06T12:21:52;151783.50;;;-2.36
39959;BMP280;25639;53.634;9.880;2023-04-06T12:24:18;151698.84;;;-2.71
39959;BMP280;25639;53.634;9.880;2023-04-06T12:26:46;151778.44;;;-2.38
39959;BMP280;25639;53.634;9.880;2023-04-06T12:29:12;151778.44;;;-2.38
39959;BMP280;25639;53.634;9.880;2023-04-06T12:31:38;151734.22;;;-2.56
39959;BMP280;25639;53.634;9.880;2023-04-06T12:34:06;151671.09;;;-2.82
39959;BMP280;25639;53.634;9.880;2023-04-06T12:36:32;151688.75;;;-2.75
39959;BMP280;25639;53.634;9.880;2023-04-06T12:38:57;151705.19;;;-2.68
39959;BMP280;25639;53.634;9.880;2023-04-06T12:41:23;151738.03;;;-2.55
39959;BMP280;25639;53.634;9.880;2023-04-06T12:43:48;151792.34;;;-2.33
39959;BMP280;25639;53.634;9.880;2023-04-06T12:46:17;151830.25;;;-2.17
39959;BMP280;25639;53.634;9.880;2023-04-06T12:48:42;151889.69;;;-1.93
39959;BMP280;25639;53.634;9.880;2023-04-06T12:51:07;151729.19;;;-2.58
39959;BMP280;25639;53.634;9.880;2023-04-06T12:53:34;151715.28;;;-2.64
39959;BMP280;25639;53.634;9.880;2023-04-06T12:56:00;151687.50;;;-2.75
39959;BMP280;25639;53.634;9.880;2023-04-06T12:58:25;151726.69;;;-2.59
39959;BMP280;25639;53.634;9.880;2023-04-06T13:00:55;151753.22;;;-2.48
39959;BMP280;25639;53.634;9.880;2023-04-06T13:03:22;151774.66;;;-2.40
39959;BMP280;25639;53.634;9.880;2023-04-06T13:05:51;151644.56;;;-2.93
39959;BMP280;25639;53.634;9.880;2023-04-06T13:08:18;151687.50;;;-2.75
39959;BMP280;25639;53.634;9.880;2023-04-06T13:10:48;151715.28;;;-2.64
39959;BMP280;25639;53.634;9.880;2023-04-06T13:13:21;151696.34;;;-2.72
39959;BMP280;25639;53.634;9.880;2023-04-06T13:15:46;151775.94;;;-2.39
39959;BMP280;25639;53.634;9.880;2023-04-06T13:18:12;151839.09;;;-2.14
39959;BMP280;25639;53.634;9.880;2023-04-06T13:20:37;151791.09;;;-2.33
39959;BMP280;25639;53.634;9.880;2023-04-06T13:23:03;151854.31;;;-2.07
39959;BMP280;25639;53.634;9.880;2023-04-06T13:25:29;151808.78;;;-2.26
39959;BMP280;25639;53.634;9.880;2023-04-06T13:27:54;151774.66;;;-2.40
39959;BMP280;25639;53.634;9.880;2023-04-06T13:30:20;151845.41;;;-2.11
39959;BMP280;25639;53.634;9.880;2023-04-06T13:32:45;151806.28;;;-2.27
39959;BMP280;25639;53.634;9.880;2023-04-06T13:35:11;151719.09;;;-2.62
39959;BMP280;25639;53.634;9.880;2023-04-06T13:37:36;151777.19;;;-2.39
39959;BMP280;25639;53.634;9.880;2023-04-06T13:40:03;151811.31;;;-2.25
39959;BMP280;25639;53.634;9.880;2023-04-06T13:42:29;151788.59;;;-2.34
39959;BMP280;25639;53.634;9.880;2023-04-06T13:44:55;151813.81;;;-2.24
39959;BMP280;25639;53.634;9.880;2023-04-06T13:47:20;151853.00;;;-2.08
39959;BMP280;25639;53.634;9.880;2023-04-06T13:49:46;151818.88;;;-2.22
39959;BMP280;25639;53.634;9.880;2023-04-06T13:52:12;151821.41;;;-2.21
39959;BMP280;25639;53.634;9.880;2023-04-06T13:54:37;151778.44;;;-2.38